Time;durP1;ratioP1;P1;durP2;ratioP2;P2;SDS_P1;SDS_P2;PMS_P1;PMS_P2;Temp;Humidity;BMP_temperature;BMP_pressure;BME280_temperature;BME280_humidity;BME280_pressure;Samples;Min_cycle;Max_cycle;Signal;HPM_P1;HPM_P2
2020/12/18 00:00:33;;;;;;;29.08;20.60;;;;;;;6.79;76.00;101745.34;5058086;28;20025;-76
2020/12/18 00:02:59;;;;;;;33.58;21.85;;;;;;;6.82;75.97;101754.94;5059329;28;20571;-71
2020/12/18 00:05:25;;;;;;;34.10;22.35;;;;;;;6.85;75.94;101750.00;5053098;28;20020;-72
2020/12/18 00:07:50;;;;;;;32.67;21.33;;;;;;;6.63;75.36;101720.22;5057567;28;20390;-73
2020/12/18 00:10:16;;;;;;;31.90;21.58;;;;;;;6.69;76.29;101755.72;5059790;28;20025;-72
2020/12/18 00:12:41;;;;;;;30.63;19.55;;;;;;;6.62;76.63;101756.91;5056896;28;20040;-72
2020/12/18 00:15:07;;;;;;;28.10;18.50;;;;;;;6.67;76.29;101754.69;5056867;28;20024;-71
2020/12/18 00:17:32;;;;;;;31.70;20.25;;;;;;;6.64;76.61;101762.16;5038182;28;20501;-70
2020/12/18 00:19:58;;;;;;;29.13;18.92;;;;;;;6.35;76.80;101726.66;5054955;28;20111;-71
2020/12/18 00:22:24;;;;;;;29.45;19.40;;;;;;;6.15;77.63;101729.50;5064376;28;20513;-71
2020/12/18 00:24:50;;;;;;;30.23;20.08;;;;;;;6.12;79.04;101760.06;5061014;28;20403;-73
2020/12/18 00:27:15;;;;;;;31.75;21.02;;;;;;;5.77;80.36;101739.38;5059631;28;20103;-71
2020/12/18 00:29:41;;;;;;;31.75;20.95;;;;;;;5.80;80.88;101762.69;5070091;28;20089;-70
2020/12/18 00:32:06;;;;;;;30.40;18.73;;;;;;;5.91;79.80;101764.41;5060429;28;20032;-72
2020/12/18 00:34:32;;;;;;;32.65;20.85;;;;;;;5.99;80.05;101753.13;5056609;28;20098;-72
2020/12/18 00:36:57;;;;;;;30.60;21.63;;;;;;;6.15;79.95;101756.84;5067450;28;20052;-72
2020/12/18 00:39:23;;;;;;;31.13;20.40;;;;;;;6.24;79.60;101767.81;5067785;28;20119;-71
2020/12/18 00:41:55;;;;;;;30.77;20.13;;;;;;;6.25;79.35;101759.31;5068801;28;20086;-72
2020/12/18 00:44:22;;;;;;;31.10;21.73;;;;;;;6.34;78.93;101776.16;5066621;28;20043;-69
2020/12/18 00:46:48;;;;;;;33.20;21.60;;;;;;;6.39;78.41;101759.44;5055240;28;20020;-70
2020/12/18 00:49:14;;;;;;;29.23;21.20;;;;;;;6.42;78.41;101759.69;5065183;28;20024;-70
2020/12/18 00:51:39;;;;;;;28.40;20.00;;;;;;;6.48;78.11;101770.41;5053716;28;20025;-72
2020/12/18 00:54:05;;;;;;;29.48;20.65;;;;;;;6.50;78.07;101761.13;5049748;28;20103;-73
2020/12/18 00:56:30;;;;;;;28.42;19.77;;;;;;;6.53;77.88;101769.09;5053723;28;20139;-72
2020/12/18 00:58:56;;;;;;;28.08;20.25;;;;;;;6.40;77.84;101723.66;5052063;28;20029;-72
2020/12/18 01:01:21;;;;;;;32.00;20.10;;;;;;;6.62;77.30;101759.47;5050900;28;20542;-72
2020/12/18 01:03:47;;;;;;;29.40;20.58;;;;;;;6.61;76.73;101752.56;5055657;28;21108;-72
2020/12/18 01:06:13;;;;;;;29.27;19.88;;;;;;;6.66;77.08;101762.28;5067285;28;20032;-73
2020/12/18 01:08:38;;;;;;;28.70;19.90;;;;;;;6.60;77.23;101753.38;5071877;28;20021;-73
2020/12/18 01:11:05;;;;;;;26.63;18.35;;;;;;;6.67;76.80;101766.63;5055526;28;20028;-72
2020/12/18 01:13:33;;;;;;;25.15;16.85;;;;;;;6.64;76.38;101751.88;5073428;28;20032;-73
2020/12/18 01:16:00;;;;;;;25.33;17.80;;;;;;;6.64;76.54;101757.03;5073528;28;20060;-72
2020/12/18 01:18:26;;;;;;;26.95;19.77;;;;;;;6.64;76.94;101762.16;5072893;28;20033;-72
2020/12/18 01:20:52;;;;;;;32.38;20.45;;;;;;;6.65;76.86;101751.13;5070135;28;20100;-72
2020/12/18 01:23:19;;;;;;;30.13;19.90;;;;;;;6.67;76.92;101761.47;5072982;28;20497;-72
2020/12/18 01:25:44;;;;;;;26.70;17.75;;;;;;;6.59;76.84;101746.44;5053889;28;20036;-72
2020/12/18 01:28:10;;;;;;;28.95;19.63;;;;;;;6.58;77.43;101757.47;5061409;28;20064;-69
2020/12/18 01:30:36;;;;;;;31.58;22.27;;;;;;;6.31;78.42;101744.38;5055624;28;20032;-69
2020/12/18 01:33:02;;;;;;;30.73;22.17;;;;;;;6.24;79.31;101744.72;5054356;28;20028;-72
2020/12/18 01:35:27;;;;;;;33.80;24.83;;;;;;;6.30;79.48;101755.41;5067287;28;20047;-71
2020/12/18 01:37:53;;;;;;;34.53;23.73;;;;;;;6.11;80.25;101749.69;5053610;28;20045;-71
2020/12/18 01:40:18;;;;;;;38.53;25.10;;;;;;;6.17;80.43;101750.16;5058153;28;20107;-71
2020/12/18 01:42:44;;;;;;;32.17;22.90;;;;;;;6.25;79.85;101746.47;5054922;28;20026;-70
2020/12/18 01:45:09;;;;;;;31.35;22.02;;;;;;;6.24;79.65;101752.41;5055015;28;20059;-70
2020/12/18 01:47:35;;;;;;;31.20;19.60;;;;;;;6.27;79.09;101751.75;5055465;28;20398;-71
2020/12/18 01:50:01;;;;;;;33.38;22.50;;;;;;;6.31;78.99;101746.06;5052760;28;20083;-71
2020/12/18 01:52:29;;;;;;;28.50;20.20;;;;;;;6.31;78.83;101743.50;5057509;28;20478;-72
2020/12/18 01:55:01;;;;;;;33.80;21.48;;;;;;;6.36;78.63;101751.53;5054160;28;20033;-73
2020/12/18 01:57:27;;;;;;;29.00;21.55;;;;;;;6.30;79.28;101736.56;5052623;28;20033;-74
2020/12/18 01:59:53;;;;;;;30.27;21.38;;;;;;;6.25;78.97;101748.16;5057045;28;20448;-70
2020/12/18 02:02:19;;;;;;;32.63;22.38;;;;;;;6.03;79.56;101723.50;5036434;28;20491;-69
2020/12/18 02:04:47;;;;;;;32.35;21.85;;;;;;;6.25;79.24;101750.72;5055317;28;20490;-73
2020/12/18 02:07:13;;;;;;;33.53;21.73;;;;;;;6.11;79.59;101747.13;5053830;28;20025;-73
2020/12/18 02:09:40;;;;;;;31.02;20.63;;;;;;;6.01;79.86;101750.66;5053299;28;20033;-74
2020/12/18 02:12:06;;;;;;;29.50;21.80;;;;;;;6.07;79.80;101737.41;5053048;28;20032;-75
2020/12/18 02:14:32;;;;;;;29.90;21.33;;;;;;;6.15;79.88;101738.88;5051712;28;20529;-75
2020/12/18 02:16:58;;;;;;;27.50;18.70;;;;;;;6.12;79.53;101738.66;5056719;28;20020;-75
2020/12/18 02:19:28;;;;;;;31.88;21.65;;;;;;;5.96;79.55;101705.81;5054113;28;20104;-74
2020/12/18 02:21:53;;;;;;;;;;;;;;;6.04;79.68;101737.19;5055443;28;20025;-74
2020/12/18 02:24:26;;;;;;;27.85;18.45;;;;;;;5.93;80.38;101736.31;5053389;28;20350;-73
2020/12/18 02:26:55;;;;;;;26.73;18.85;;;;;;;5.80;81.03;101731.94;5053087;28;20079;-74
2020/12/18 02:29:20;;;;;;;37.08;23.38;;;;;;;5.84;81.40;101728.84;5054707;28;20021;-73
2020/12/18 02:31:50;;;;;;;31.48;21.40;;;;;;;5.89;81.29;101718.94;5056541;28;20028;-74
2020/12/18 02:34:28;;;;;;;31.77;19.38;;;;;;;6.02;80.71;101731.03;5053782;28;20024;-71
2020/12/18 02:36:53;;;;;;;32.63;22.48;;;;;;;6.04;80.68;101726.94;5055320;28;20709;-72
2020/12/18 02:39:19;;;;;;;33.17;21.25;;;;;;;6.13;80.21;101722.47;5053903;28;20029;-75
2020/12/18 02:41:45;;;;;;;29.35;20.70;;;;;;;6.24;79.59;101739.59;5053505;28;20029;-75
2020/12/18 02:44:11;;;;;;;30.05;19.88;;;;;;;6.13;79.55;101714.78;5053821;28;20777;-71
2020/12/18 02:46:37;;;;;;;31.65;21.00;;;;;;;6.18;79.53;101725.41;5052381;28;20483;-72
2020/12/18 02:49:03;;;;;;;34.30;23.17;;;;;;;6.28;79.21;101736.47;5052139;28;20469;-72
2020/12/18 02:51:29;;;;;;;30.65;20.42;;;;;;;6.39;78.70;101739.84;5054054;28;20036;-73
2020/12/18 02:53:54;;;;;;;29.10;20.33;;;;;;;6.26;79.16;101729.44;5033639;28;20037;-78
2020/12/18 02:56:27;;;;;;;32.10;20.88;;;;;;;6.15;79.85;101741.44;5031106;28;20423;-78
2020/12/18 02:58:53;;;;;;;33.33;21.15;;;;;;;6.05;79.93;101737.28;5031783;28;20037;-75
2020/12/18 03:01:20;;;;;;;33.15;22.08;;;;;;;6.10;80.34;101735.09;5030062;28;20037;-76
2020/12/18 03:03:46;;;;;;;35.47;22.40;;;;;;;6.12;80.13;101744.69;5029904;28;20509;-75
2020/12/18 03:06:11;;;;;;;34.58;22.98;;;;;;;6.13;80.61;101730.16;5029230;28;20037;-74
2020/12/18 03:08:37;;;;;;;32.63;21.85;;;;;;;6.24;80.24;101733.56;5031385;28;20033;-76
2020/12/18 03:11:02;;;;;;;31.98;20.50;;;;;;;5.97;80.93;101741.81;5033207;28;20033;-72
2020/12/18 03:13:28;;;;;;;33.72;21.08;;;;;;;5.53;82.93;101752.09;5030781;28;20064;-73
2020/12/18 03:15:55;;;;;;;36.72;23.42;;;;;;;5.49;83.33;101750.94;5031626;28;20037;-71
2020/12/18 03:18:20;;;;;;;38.70;23.40;;;;;;;5.69;82.99;101751.59;5029563;28;20076;-73
2020/12/18 03:20:46;;;;;;;35.83;21.13;;;;;;;5.66;82.86;101761.63;5029493;28;20470;-72
2020/12/18 03:23:11;;;;;;;37.08;22.55;;;;;;;5.70;82.87;101758.53;5029100;28;20041;-73
2020/12/18 03:25:37;;;;;;;34.78;23.67;;;;;;;5.86;82.42;101755.47;5030447;28;20080;-74
2020/12/18 03:28:02;;;;;;;35.95;23.90;;;;;;;6.02;81.58;101752.47;5031904;28;20029;-72
2020/12/18 03:30:29;;;;;;;39.08;23.52;;;;;;;6.15;80.92;101754.28;5032788;28;20102;-73
2020/12/18 03:32:55;;;;;;;34.40;24.00;;;;;;;5.65;82.17;101732.53;5049688;28;20028;-74
2020/12/18 03:35:21;;;;;;;44.10;26.50;;;;;;;5.63;83.59;101752.03;5049465;28;20024;-74
2020/12/18 03:37:46;;;;;;;49.25;26.90;;;;;;;5.37;85.81;101762.81;5053362;28;20548;-74
2020/12/18 03:40:11;;;;;;;49.03;27.55;;;;;;;5.09;87.61;101765.72;5054085;28;20380;-74
2020/12/18 03:42:37;;;;;;;44.90;27.00;;;;;;;5.06;87.35;101764.59;5052305;28;20024;-73
2020/12/18 03:45:03;;;;;;;41.30;24.35;;;;;;;5.03;86.78;101767.81;5052051;28;20025;-72
2020/12/18 03:47:29;;;;;;;48.13;26.60;;;;;;;5.23;86.79;101765.94;5054580;28;20503;-77
2020/12/18 03:49:54;;;;;;;44.90;26.85;;;;;;;5.30;87.10;101763.97;5052798;28;20028;-75
2020/12/18 03:52:19;;;;;;;44.35;25.77;;;;;;;5.29;87.24;101764.75;5053167;28;20028;-71
2020/12/18 03:54:45;;;;;;;44.95;24.85;;;;;;;5.22;87.39;101759.03;5033599;28;20017;-72
2020/12/18 03:57:10;;;;;;;45.72;26.15;;;;;;;5.27;87.63;101763.75;5051665;28;20028;-74
2020/12/18 03:59:36;;;;;;;56.85;32.22;;;;;;;5.35;87.21;101770.34;5050467;28;20033;-74
2020/12/18 04:02:01;;;;;;;70.07;41.63;;;;;;;5.22;87.50;101759.94;5050322;28;20028;-74
2020/12/18 04:04:27;;;;;;;48.42;27.77;;;;;;;5.24;87.83;101768.63;5037140;28;20483;-74
2020/12/18 04:06:52;;;;;;;52.22;28.25;;;;;;;5.29;87.52;101764.75;5052138;28;20574;-72
2020/12/18 04:09:18;;;;;;;51.63;28.85;;;;;;;5.28;87.09;101755.31;5053247;28;20470;-74
2020/12/18 04:11:44;;;;;;;48.90;26.05;;;;;;;5.41;86.85;101769.97;5051457;28;20021;-74
2020/12/18 04:14:10;;;;;;;45.47;27.25;;;;;;;5.38;86.88;101753.47;5050295;28;20052;-74
2020/12/18 04:16:35;;;;;;;50.42;27.88;;;;;;;5.43;86.40;101757.28;5050725;28;20475;-72
2020/12/18 04:19:01;;;;;;;52.25;29.38;;;;;;;5.14;86.22;101703.00;5053313;28;20380;-74
2020/12/18 04:21:26;;;;;;;51.72;27.75;;;;;;;5.50;86.01;101760.44;5036865;28;20079;-74
2020/12/18 04:23:52;;;;;;;47.35;28.65;;;;;;;5.30;85.73;101723.00;5052067;28;20036;-72
2020/12/18 04:26:17;;;;;;;46.75;27.02;;;;;;;5.50;86.00;101757.88;5052929;28;20029;-72
2020/12/18 04:28:43;;;;;;;49.35;26.70;;;;;;;5.54;86.09;101760.69;5052912;28;20456;-74
2020/12/18 04:31:08;;;;;;;44.92;26.48;;;;;;;5.61;85.72;101768.06;5052543;28;20127;-74
2020/12/18 04:33:35;;;;;;;47.95;27.42;;;;;;;5.65;85.28;101775.22;5053947;28;20405;-75
2020/12/18 04:36:00;;;;;;;45.10;24.95;;;;;;;5.61;85.09;101775.75;5051716;28;20502;-74
2020/12/18 04:38:26;;;;;;;44.17;25.42;;;;;;;5.56;85.30;101772.84;5055356;28;20029;-74
2020/12/18 04:40:52;;;;;;;53.25;32.75;;;;;;;5.62;85.03;101773.31;5055869;28;20041;-73
2020/12/18 04:43:18;;;;;;;46.50;26.10;;;;;;;5.55;85.24;101776.16;5058003;28;20040;-74
2020/12/18 04:45:44;;;;;;;39.35;23.27;;;;;;;5.51;85.01;101756.22;5073852;28;20523;-72
2020/12/18 04:48:12;;;;;;;45.33;24.75;;;;;;;5.54;84.70;101774.38;5057763;28;20025;-74
2020/12/18 04:50:38;;;;;;;37.67;23.83;;;;;;;5.59;84.65;101778.19;5059289;28;20035;-75
2020/12/18 04:53:05;;;;;;;39.70;23.05;;;;;;;5.63;84.28;101792.13;5011806;28;20038;-74
2020/12/18 04:55:34;;;;;;;59.10;32.95;;;;;;;5.69;84.17;101784.03;5012048;28;20121;-72
2020/12/18 04:58:02;;;;;;;69.72;36.50;;;;;;;5.66;83.67;101787.25;5012689;28;20037;-72
2020/12/18 05:00:27;;;;;;;46.13;25.33;;;;;;;5.63;84.04;101781.88;5011994;28;20505;-74
2020/12/18 05:02:53;;;;;;;43.55;24.75;;;;;;;5.52;83.93;101786.19;5012184;28;20121;-74
2020/12/18 05:05:19;;;;;;;46.92;25.13;;;;;;;5.59;84.40;101795.22;4993334;28;20062;-75
2020/12/18 05:07:44;;;;;;;44.22;25.90;;;;;;;5.62;84.00;101801.50;5011683;28;20485;-73
2020/12/18 05:10:10;;;;;;;42.28;25.55;;;;;;;5.64;83.87;101806.72;5010986;28;20029;-74
2020/12/18 05:12:36;;;;;;;49.63;27.10;;;;;;;5.69;83.63;101804.53;4996069;28;20112;-74
2020/12/18 05:15:05;;;;;;;47.45;26.55;;;;;;;5.73;83.14;101809.13;5011720;28;20029;-74
2020/12/18 05:17:31;;;;;;;42.10;25.35;;;;;;;5.73;83.04;101802.34;5011517;28;20113;-76
2020/12/18 05:19:58;;;;;;;48.63;26.30;;;;;;;5.48;83.12;101777.38;5011937;28;20029;-74
2020/12/18 05:22:24;;;;;;;48.38;25.52;;;;;;;5.73;83.02;101809.13;4995496;28;20125;-75
2020/12/18 05:24:51;;;;;;;47.78;25.27;;;;;;;5.80;82.75;101807.13;5044203;28;20037;-74
2020/12/18 05:27:17;;;;;;;36.13;20.90;;;;;;;5.74;82.25;101814.34;5066581;28;20028;-75
2020/12/18 05:29:42;;;;;;;50.70;27.63;;;;;;;5.73;82.50;101820.28;5074145;28;20032;-74
2020/12/18 05:32:12;;;;;;;43.58;23.00;;;;;;;5.73;82.26;101827.06;5073684;28;20046;-74
2020/12/18 05:34:39;;;;;;;45.80;25.60;;;;;;;5.55;82.45;101788.97;5073684;28;20457;-75
2020/12/18 05:37:04;;;;;;;43.03;24.45;;;;;;;5.76;82.42;101822.19;5070345;28;20414;-71
2020/12/18 05:39:33;;;;;;;36.45;20.38;;;;;;;5.74;82.10;101826.28;5071364;28;20040;-72
2020/12/18 05:42:03;;;;;;;36.20;20.13;;;;;;;5.74;82.11;101831.41;5072939;28;20046;-76
2020/12/18 05:44:30;;;;;;;55.60;44.25;;;;;;;5.59;82.38;101826.84;5055475;28;20028;-77
2020/12/18 05:47:07;;;;;;;38.45;22.13;;;;;;;5.76;82.15;101835.00;5064248;28;20543;-75
2020/12/18 05:49:34;;;;;;;40.53;23.35;;;;;;;5.81;81.98;101823.44;5072341;28;20043;-74
2020/12/18 05:52:04;;;;;;;49.92;33.15;;;;;;;5.95;81.66;101827.06;5073024;28;20025;-72
2020/12/18 05:54:34;;;;;;;38.30;22.55;;;;;;;6.04;81.13;101826.91;5073283;28;20028;-74
2020/12/18 05:57:17;;;;;;;39.92;23.67;;;;;;;6.09;80.75;101831.63;5073751;28;20025;-74
2020/12/18 05:59:47;;;;;;;41.70;25.77;;;;;;;6.17;80.55;101836.44;5069800;28;20112;-74
2020/12/18 06:02:18;;;;;;;34.10;21.13;;;;;;;6.22;80.10;101829.97;5073086;28;20024;-72
2020/12/18 06:04:45;;;;;;;40.92;25.58;;;;;;;6.32;79.82;101840.19;5073331;28;20028;-71
2020/12/18 06:07:11;;;;;;;42.88;23.98;;;;;;;6.15;79.75;101795.28;5073061;28;20394;-75
2020/12/18 06:09:38;;;;;;;40.53;24.35;;;;;;;6.24;79.65;101833.56;5073293;28;20021;-75
2020/12/18 06:12:12;;;;;;;36.72;22.00;;;;;;;5.86;80.81;101847.75;5055142;28;20371;-74
2020/12/18 06:14:39;;;;;;;45.08;28.13;;;;;;;5.69;80.87;101794.28;5072840;28;20021;-74
2020/12/18 06:17:07;;;;;;;46.17;31.15;;;;;;;5.80;81.73;101844.69;5072920;28;20028;-74
2020/12/18 06:19:38;;;;;;;37.92;22.92;;;;;;;5.83;81.88;101847.50;5072780;28;20563;-73
2020/12/18 06:22:06;;;;;;;38.33;22.40;;;;;;;5.82;81.68;101838.03;5072695;28;20024;-74
2020/12/18 06:24:36;;;;;;;33.15;19.27;;;;;;;5.56;82.77;101852.25;5072762;28;20050;-71
2020/12/18 06:27:01;;;;;;;37.13;21.30;;;;;;;5.47;83.82;101847.28;5051298;28;20023;-74
2020/12/18 06:29:27;;;;;;;38.53;22.73;;;;;;;5.47;83.84;101847.28;5055235;28;20040;-71
2020/12/18 06:31:53;;;;;;;37.35;20.63;;;;;;;5.59;83.36;101843.91;5054914;28;20099;-72
2020/12/18 06:34:26;;;;;;;36.15;20.90;;;;;;;5.60;82.39;101849.13;5072748;28;20103;-71
2020/12/18 06:36:52;;;;;;;34.20;19.63;;;;;;;5.69;82.30;101853.22;5041345;28;20053;-70
2020/12/18 06:39:33;;;;;;;36.13;20.83;;;;;;;5.66;82.02;101859.88;5072945;28;20036;-74
2020/12/18 06:42:12;;;;;;;42.08;22.20;;;;;;;5.74;82.26;101854.47;5072811;28;20043;-72
2020/12/18 06:44:44;;;;;;;46.03;27.13;;;;;;;5.65;82.82;101858.09;5072747;28;20048;-71
2020/12/18 06:47:12;;;;;;;41.22;24.48;;;;;;;5.47;83.45;101852.41;5072451;28;20031;-75
2020/12/18 06:49:59;;;;;;;36.97;20.48;;;;;;;5.40;84.42;101851.81;5054378;28;20494;-76
2020/12/18 06:52:53;;;;;;;37.42;21.52;;;;;;;5.45;84.66;101853.94;5072255;28;20025;-75
2020/12/18 06:55:24;;;;;;;43.45;25.85;;;;;;;5.53;83.95;101857.09;5010354;28;20125;-72
2020/12/18 06:58:08;;;;;;;40.67;26.33;;;;;;;5.61;84.03;101860.31;5010043;28;20029;-73
2020/12/18 07:00:53;;;;;;;57.83;45.42;;;;;;;5.57;83.98;101858.25;5009932;28;20524;-76
2020/12/18 07:03:45;;;;;;;57.40;40.47;;;;;;;5.62;83.59;101862.97;5000035;28;20092;-74
2020/12/18 07:06:12;;;;;;;39.08;22.40;;;;;;;5.47;84.03;101854.97;5009962;28;20528;-77
2020/12/18 07:08:40;;;;;;;37.17;21.05;;;;;;;5.32;84.91;101856.28;5009950;28;20030;-72
2020/12/18 07:11:18;;;;;;;38.63;20.08;;;;;;;5.37;84.18;101839.66;5009517;28;20052;-72
2020/12/18 07:13:47;;;;;;;38.33;21.42;;;;;;;5.49;83.90;101863.66;5009819;28;20038;-72
2020/12/18 07:16:16;;;;;;;39.08;21.23;;;;;;;5.57;83.47;101864.28;5009597;28;20484;-74
2020/12/18 07:18:45;;;;;;;41.03;22.70;;;;;;;5.60;82.76;101854.25;5009797;28;20522;-72
2020/12/18 07:21:15;;;;;;;37.65;21.65;;;;;;;5.61;82.59;101853.50;4992981;28;20045;-76
2020/12/18 07:23:46;;;;;;;36.50;21.63;;;;;;;5.29;82.38;101799.72;5009742;28;20034;-73
2020/12/18 07:26:13;;;;;;;40.20;20.27;;;;;;;5.34;83.12;101845.38;5009882;28;20045;-71
2020/12/18 07:28:40;;;;;;;33.65;19.55;;;;;;;5.38;83.71;101859.34;5009665;28;20041;-74
2020/12/18 07:31:14;;;;;;;32.00;19.60;;;;;;;5.38;83.40;101855.91;5013887;28;20412;-73
2020/12/18 07:33:40;;;;;;;39.75;24.95;;;;;;;5.48;82.95;101863.53;5069328;28;20024;-74
2020/12/18 07:36:06;;;;;;;38.20;22.00;;;;;;;5.57;82.63;101869.41;5067631;28;20057;-70
2020/12/18 07:38:33;;;;;;;32.58;19.02;;;;;;;5.69;82.13;101868.59;5054823;28;20041;-73
2020/12/18 07:40:59;;;;;;;29.83;18.55;;;;;;;5.71;81.73;101869.59;5071401;28;20092;-72
2020/12/18 07:43:28;;;;;;;46.70;35.40;;;;;;;5.74;81.08;101874.97;5071407;28;20027;-71
2020/12/18 07:45:56;;;;;;;28.27;16.90;;;;;;;5.55;80.67;101865.81;5058216;28;20016;-73
2020/12/18 07:48:24;;;;;;;27.13;16.60;;;;;;;5.54;81.56;101873.38;5071124;28;20028;-74
2020/12/18 07:50:54;;;;;;;30.73;17.77;;;;;;;5.51;81.66;101874.94;5071238;28;20512;-72
2020/12/18 07:53:22;;;;;;;27.63;16.08;;;;;;;5.54;80.33;101869.16;5071308;28;20494;-74
2020/12/18 07:55:58;;;;;;;26.45;15.82;;;;;;;5.35;80.78;101831.81;5071109;28;20032;-75
2020/12/18 07:58:23;;;;;;;41.55;24.10;;;;;;;5.64;80.60;101870.78;5071589;28;20153;-71
2020/12/18 08:00:49;;;;;;;30.00;17.83;;;;;;;5.23;80.74;101825.72;5066840;28;20472;-73
2020/12/18 08:03:14;;;;;;;28.63;18.15;;;;;;;5.50;80.34;101864.56;5071367;28;20513;-72
2020/12/18 08:05:43;;;;;;;28.13;16.40;;;;;;;5.50;80.62;101867.13;5069537;28;20017;-72
2020/12/18 08:08:10;;;;;;;25.35;15.68;;;;;;;5.64;80.03;101870.78;5071771;28;20028;-72
2020/12/18 08:10:40;;;;;;;37.58;28.70;;;;;;;5.69;80.11;101874.59;5071852;28;20029;-72
2020/12/18 08:13:05;;;;;;;26.67;16.70;;;;;;;5.59;79.07;101872.09;5071243;28;20108;-74
2020/12/18 08:15:31;;;;;;;26.70;15.95;;;;;;;5.33;80.04;101879.47;5071816;28;20406;-74
2020/12/18 08:17:59;;;;;;;25.42;16.27;;;;;;;5.22;80.44;101852.13;5071669;28;20132;-72
2020/12/18 08:20:25;;;;;;;42.67;26.23;;;;;;;5.46;80.46;101875.34;5071575;28;20115;-74
2020/12/18 08:22:51;;;;;;;25.98;16.00;;;;;;;5.54;79.69;101881.06;5053745;28;20095;-73
2020/12/18 08:25:19;;;;;;;28.55;15.90;;;;;;;5.57;79.19;101881.31;5071608;28;20049;-72
2020/12/18 08:27:55;;;;;;;25.42;15.45;;;;;;;5.49;79.33;101890.94;5071457;28;20032;-74
2020/12/18 08:30:25;;;;;;;27.90;18.02;;;;;;;5.46;80.19;101876.22;5071625;28;20024;-72
2020/12/18 08:32:54;;;;;;;25.77;15.02;;;;;;;5.47;79.39;101877.09;5071931;28;20048;-75
2020/12/18 08:35:21;;;;;;;23.97;15.43;;;;;;;5.40;79.24;101872.28;5071993;28;20426;-72
2020/12/18 08:37:48;;;;;;;31.50;22.60;;;;;;;5.46;79.34;101876.22;5053764;28;20282;-76
2020/12/18 08:40:20;;;;;;;36.75;28.83;;;;;;;5.44;79.09;101871.75;5035733;28;20124;-72
2020/12/18 08:43:00;;;;;;;24.00;13.82;;;;;;;5.57;77.40;101873.63;5071342;28;20028;-71
2020/12/18 08:45:27;;;;;;;20.40;13.68;;;;;;;5.56;76.35;101862.50;5053414;28;20112;-78
2020/12/18 08:47:56;;;;;;;22.35;15.00;;;;;;;5.33;76.92;101866.69;5053508;28;20546;-72
2020/12/18 08:50:22;;;;;;;22.47;14.00;;;;;;;5.49;78.02;101866.22;5071593;28;20024;-74
2020/12/18 08:52:48;;;;;;;25.02;14.88;;;;;;;5.55;76.46;101864.94;5071319;28;20255;-73
2020/12/18 08:55:33;;;;;;;24.27;15.40;;;;;;;5.56;76.29;101862.50;5028976;28;20459;-73
2020/12/18 08:58:06;;;;;;;24.17;14.55;;;;;;;5.58;75.62;101853.28;5028897;28;20123;-75
2020/12/18 09:00:32;;;;;;;26.15;16.58;;;;;;;5.56;76.11;101844.56;5029128;28;20033;-73
2020/12/18 09:02:58;;;;;;;23.80;14.65;;;;;;;5.75;75.85;101863.94;5028878;28;20029;-74
2020/12/18 09:05:30;;;;;;;24.10;17.42;;;;;;;5.89;75.63;101868.47;5028932;28;20424;-72
2020/12/18 09:08:06;;;;;;;26.50;16.27;;;;;;;6.01;75.00;101854.84;5028874;28;20096;-72
2020/12/18 09:10:50;;;;;;;23.27;15.05;;;;;;;6.12;74.62;101851.47;5028823;28;20042;-72
2020/12/18 09:13:27;;;;;;;27.48;16.30;;;;;;;6.26;73.27;101856.00;5029178;28;20033;-78
2020/12/18 09:15:56;;;;;;;26.55;16.13;;;;;;;6.15;73.04;101850.03;5028481;28;20424;-74
2020/12/18 09:18:25;;;;;;;29.02;16.77;;;;;;;6.05;72.88;101841.53;5028690;28;20443;-74
2020/12/18 09:20:55;;;;;;;29.95;16.05;;;;;;;6.03;73.52;101836.28;5028269;28;20392;-74
2020/12/18 09:23:29;;;;;;;26.92;16.65;;;;;;;6.00;73.28;101848.84;5028594;28;20037;-72
2020/12/18 09:25:55;;;;;;;29.88;18.27;;;;;;;6.20;73.88;101840.13;5041448;28;20097;-77
2020/12/18 09:28:21;;;;;;;32.55;23.02;;;;;;;6.31;75.04;101849.53;5074459;28;20479;-74
2020/12/18 09:30:47;;;;;;;27.15;15.75;;;;;;;6.10;72.79;101812.88;5056671;28;20398;-74
2020/12/18 09:33:40;;;;;;;28.92;16.45;;;;;;;6.37;73.58;101832.81;5074467;28;20506;-75
2020/12/18 09:36:06;;;;;;;30.92;21.52;;;;;;;6.29;73.05;101837.38;5074237;28;20045;-71
2020/12/18 09:38:38;;;;;;;39.35;25.00;;;;;;;6.17;73.15;101832.22;5074499;28;20033;-74
2020/12/18 09:41:13;;;;;;;32.45;20.45;;;;;;;6.38;72.82;101826.91;5056321;28;20457;-72
2020/12/18 09:43:39;;;;;;;32.83;18.60;;;;;;;6.51;74.18;101832.19;5074083;28;20028;-72
2020/12/18 09:46:11;;;;;;;31.33;17.50;;;;;;;6.66;72.29;101836.72;5074019;28;20413;-79
2020/12/18 09:48:38;;;;;;;29.95;16.13;;;;;;;6.63;71.84;101832.25;5074312;28;20036;-72
2020/12/18 09:51:03;;;;;;;23.30;14.88;;;;;;;6.53;72.48;101825.53;5073768;28;20481;-72
2020/12/18 09:53:29;;;;;;;26.02;16.10;;;;;;;6.55;73.33;101817.94;5074092;28;20068;-74
2020/12/18 09:55:54;;;;;;;30.27;17.02;;;;;;;6.62;74.66;101821.06;5073795;28;20036;-71
2020/12/18 09:58:20;;;;;;;23.77;16.52;;;;;;;6.75;72.60;101825.47;5074141;28;20033;-74
2020/12/18 10:00:46;;;;;;;23.67;14.80;;;;;;;6.74;72.13;101826.25;5073663;28;20039;-77
2020/12/18 10:03:12;;;;;;;26.48;16.73;;;;;;;6.82;72.54;101828.44;5073480;28;20024;-74
2020/12/18 10:05:37;;;;;;;25.85;17.60;;;;;;;6.40;71.99;101757.00;5073817;28;20036;-71
2020/12/18 10:08:03;;;;;;;19.75;13.63;;;;;;;6.80;71.52;101828.34;5074276;28;20020;-72
2020/12/18 10:10:30;;;;;;;22.77;15.77;;;;;;;6.87;70.75;101816.88;5073629;28;20112;-77
2020/12/18 10:12:56;;;;;;;23.05;15.00;;;;;;;6.86;71.18;101817.66;5073190;28;20522;-77
2020/12/18 10:15:22;;;;;;;23.00;15.10;;;;;;;6.81;70.19;101804.47;5054465;28;20093;-72
2020/12/18 10:17:48;;;;;;;25.38;15.85;;;;;;;6.82;70.35;101810.47;5074189;28;20021;-74
2020/12/18 10:20:14;;;;;;;21.55;13.35;;;;;;;6.85;70.08;101819.31;5073203;28;20027;-74
2020/12/18 10:22:39;;;;;;;20.50;12.52;;;;;;;6.63;70.03;101801.44;5073781;28;20041;-71
2020/12/18 10:25:04;;;;;;;21.60;12.77;;;;;;;6.64;70.44;101816.94;5073646;28;20044;-74
2020/12/18 10:27:30;;;;;;;20.27;13.82;;;;;;;6.68;70.13;101815.50;5073901;28;20024;-78
2020/12/18 10:29:55;;;;;;;21.48;13.68;;;;;;;6.81;70.65;101812.16;5073468;28;20073;-72
2020/12/18 10:32:24;;;;;;;21.83;13.55;;;;;;;6.84;69.42;101796.09;5073618;28;20020;-72
2020/12/18 10:34:50;;;;;;;24.02;15.40;;;;;;;6.70;69.66;101800.22;5072548;28;20419;-74
2020/12/18 10:37:16;;;;;;;25.60;17.70;;;;;;;6.82;70.01;101806.25;5073367;28;20052;-72
2020/12/18 10:39:41;;;;;;;27.23;17.58;;;;;;;6.87;71.97;101804.91;5073313;28;20467;-73
2020/12/18 10:42:08;;;;;;;24.42;16.85;;;;;;;6.90;71.23;101801.69;5073236;28;20032;-77
2020/12/18 10:44:35;;;;;;;24.95;16.30;;;;;;;6.84;71.79;101791.88;5073099;28;20402;-78
2020/12/18 10:47:01;;;;;;;26.58;15.52;;;;;;;6.90;72.29;101799.13;5072752;28;20029;-77
2020/12/18 10:49:27;;;;;;;28.90;17.83;;;;;;;6.80;71.20;101798.47;5071478;28;20532;-76
2020/12/18 10:51:52;;;;;;;25.73;16.65;;;;;;;6.57;71.25;101763.38;5072958;28;20446;-73
2020/12/18 10:54:18;;;;;;;24.45;13.30;;;;;;;6.49;71.76;101790.13;5072809;28;20066;-74
2020/12/18 10:56:56;;;;;;;19.90;13.68;;;;;;;6.39;72.54;101793.72;5070739;28;20562;-74
2020/12/18 10:59:22;;;;;;;23.50;14.10;;;;;;;6.19;73.51;101791.28;5072328;28;20028;-74
2020/12/18 11:01:53;;;;;;;20.67;13.80;;;;;;;6.19;72.90;101787.06;5071771;28;20032;-75
2020/12/18 11:04:19;;;;;;;24.13;14.50;;;;;;;6.39;72.93;101785.09;5071728;28;20562;-72
2020/12/18 11:06:45;;;;;;;24.25;15.82;;;;;;;6.23;73.88;101747.16;5054005;28;20028;-75
2020/12/18 11:09:11;;;;;;;27.95;16.95;;;;;;;6.48;72.79;101767.84;5071509;28;20047;-78
2020/12/18 11:11:36;;;;;;;22.15;14.02;;;;;;;6.53;71.70;101766.50;5071971;28;20458;-74
2020/12/18 11:14:02;;;;;;;24.52;16.67;;;;;;;6.36;73.09;101736.16;5071609;28;20029;-75
2020/12/18 11:16:27;;;;;;;23.70;15.50;;;;;;;6.55;72.56;101767.50;5071629;28;20028;-74
2020/12/18 11:18:53;;;;;;;21.60;14.60;;;;;;;6.55;72.78;101764.94;5071626;28;20032;-75